South Prairie, Washington
Current Conditions -  °F | °C
As of 6:25 AM on Sunday 21 Dec 2014 (Local Time) from KTCM Reporting Station
Light Rain Light Rain  
Wind Chill: 50°   Ceiling: 2200
Heat Index: 50°   Visibility: 10mi
Dew Point: 50°   Wind: 13mph
Humidity: 100%   Direction: 200°SSW
Pressure: 29.82"   Gusts: NA
Location:  47.14°N, 122.1°W
Report Text: KTCM 211425Z AUTO 20011KT 10SM -RA BKN022 BKN030 BKN100 OVC180 10/10 A2982 RMK AO2 RAB25 BKN022 V OVC
Loading
Personal Weather Stations






























Interactive Weather Map New forecast layout! Learn more

10-Day Weather Forecast

Advertisements
Track Severe Weather on mobile